This is the latest recevied weather packets stored in our database for station/object IU3OVK-13. If no packets are shown the sender has not sent any weather packets the latest 10 day(s).
| Time | Temp. | Humidity | Pressure | Rain* | Wind** | Luminosity | Snow |
|---|---|---|---|---|---|---|---|
| 1777334132 | 13.33° C | 99% | 1010.9 hPa | - | - | - | - |
| 1777333511 | 13.33° C | 99% | 1011.1 hPa | - | - | - | - |
| 1777332891 | 13.89° C | 99% | 1011.1 hPa | - | - | - | - |
| 1777332271 | 15° C | 99% | 1011 hPa | - | - | - | - |
| 1777331651 | 15° C | 99% | 1011 hPa | - | - | - | - |
| 1777331031 | 15° C | 99% | 1011.2 hPa | - | - | - | - |
| 1777330410 | 15.56° C | 99% | 1010.6 hPa | - | - | - | - |
| 1777329790 | 15° C | 99% | 1011.1 hPa | - | - | - | - |
| 1777329170 | 15.56° C | 99% | 1011.2 hPa | - | - | - | - |
| 1777328550 | 15.56° C | 99% | 1010.8 hPa | - | - | - | - |
| 1777327931 | 15.56° C | 99% | 1011.6 hPa | - | - | - | - |
| 1777327310 | 17.22° C | 99% | 1010.9 hPa | - | - | - | - |
| 1777326689 | 16.11° C | 99% | 1011.3 hPa | - | - | - | - |
| 1777326069 | 16.67° C | 99% | 1011 hPa | - | - | - | - |
| 1777325449 | 16.11° C | 99% | 1011.4 hPa | - | - | - | - |
| 1777324829 | 16.11° C | 99% | 1011.2 hPa | - | - | - | - |
| 1777324209 | 16.67° C | 99% | 1011.4 hPa | - | - | - | - |
| 1777323589 | 17.22° C | 99% | 1011 hPa | - | - | - | - |
| 1777322969 | 16.67° C | 99% | 1011.7 hPa | - | - | - | - |
| 1777322348 | 17.78° C | 99% | 1011.6 hPa | - | - | - | - |
| 1777321728 | 17.78° C | 99% | 1011 hPa | - | - | - | - |
| 1777321108 | 17.78° C | 99% | 1011 hPa | - | - | - | - |
| 1777320488 | 18.33° C | 99% | 1011.1 hPa | - | - | - | - |
| 1777319868 | 17.78° C | 99% | 1011.6 hPa | - | - | - | - |
| 1777319248 | 18.89° C | 99% | 1010.7 hPa | - | - | - | - |
* Rain since midnight (hover to see other rain measurements)
** Current wind speed in m/s (hover to see current wind gust speed)